createdAt,value
2023-09-17T00:00:18.151Z,85.000000
2023-09-17T00:05:18.037Z,86.000000
2023-09-17T00:10:18.410Z,85.000000
2023-09-17T00:15:18.222Z,85.000000
2023-09-17T00:20:18.111Z,86.000000
2023-09-17T00:25:18.108Z,86.000000
2023-09-17T00:30:18.264Z,86.000000
2023-09-17T00:35:18.134Z,86.000000
2023-09-17T04:30:18.024Z,88.000000
2023-09-17T04:35:17.809Z,88.000000
2023-09-17T04:40:17.660Z,88.000000
2023-09-17T04:45:17.702Z,88.000000
2023-09-17T04:50:18.011Z,88.000000
2023-09-17T04:55:17.717Z,88.000000
2023-09-17T05:00:17.728Z,88.000000
2023-09-17T05:05:17.698Z,88.000000
2023-09-17T05:10:17.830Z,88.000000
2023-09-17T05:15:17.732Z,88.000000
2023-09-17T05:20:17.658Z,88.000000
2023-09-17T05:25:17.677Z,88.000000
2023-09-17T05:30:17.700Z,89.000000
2023-09-17T05:35:17.677Z,89.000000
2023-09-17T05:40:18.134Z,89.000000
2023-09-17T05:45:18.401Z,89.000000
2023-09-17T05:50:17.753Z,89.000000
2023-09-17T05:55:17.747Z,89.000000
2023-09-17T06:00:18.877Z,89.000000
2023-09-17T06:05:17.822Z,89.000000
2023-09-17T06:10:17.916Z,89.000000
2023-09-17T06:15:17.743Z,89.000000
2023-09-17T06:20:18.045Z,89.000000
2023-09-17T06:25:17.694Z,89.000000
2023-09-17T06:30:17.988Z,89.000000
2023-09-17T06:35:17.790Z,89.000000
2023-09-17T06:40:17.959Z,89.000000
2023-09-17T06:45:17.878Z,89.000000
2023-09-17T06:50:18.307Z,89.000000
2023-09-17T06:55:18.003Z,89.000000
2023-09-17T07:00:18.404Z,89.000000
2023-09-17T07:05:18.057Z,89.000000
2023-09-17T07:10:17.972Z,89.000000
2023-09-17T07:15:17.940Z,89.000000
2023-09-17T07:20:17.923Z,89.000000
2023-09-17T07:25:18.424Z,89.000000
2023-09-17T07:30:18.158Z,89.000000
2023-09-17T07:35:18.071Z,88.000000
2023-09-17T07:40:20.078Z,88.000000
2023-09-17T07:45:18.048Z,89.000000
2023-09-17T07:50:18.029Z,89.000000
2023-09-17T07:55:18.023Z,89.000000
2023-09-17T08:00:19.927Z,89.000000
2023-09-17T08:05:18.141Z,89.000000
2023-09-17T08:10:18.137Z,89.000000
2023-09-17T08:15:18.459Z,89.000000
2023-09-17T08:20:18.027Z,89.000000
2023-09-17T08:25:18.080Z,89.000000
2023-09-17T08:30:18.198Z,89.000000
2023-09-17T08:35:18.272Z,88.000000
2023-09-17T08:40:18.191Z,88.000000
2023-09-17T08:45:18.341Z,88.000000
2023-09-17T08:50:18.331Z,88.000000
2023-09-17T08:55:18.153Z,88.000000
2023-09-17T09:00:16.488Z,88.000000
2023-09-17T09:05:18.208Z,88.000000
2023-09-17T09:10:18.645Z,88.000000
2023-09-17T09:15:18.260Z,88.000000
2023-09-17T09:20:18.198Z,88.000000
2023-09-17T09:25:18.257Z,88.000000
2023-09-17T09:30:18.446Z,88.000000
2023-09-17T09:35:18.184Z,88.000000
2023-09-17T09:40:18.244Z,88.000000
2023-09-17T09:45:18.421Z,88.000000
2023-09-17T09:50:18.294Z,88.000000
2023-09-17T09:55:18.184Z,88.000000
2023-09-17T10:00:19.442Z,88.000000
2023-09-17T10:05:18.243Z,88.000000
2023-09-17T10:10:18.234Z,88.000000
2023-09-17T10:15:18.310Z,88.000000
2023-09-17T10:20:16.702Z,88.000000
2023-09-17T10:25:17.466Z,88.000000
2023-09-17T10:30:16.536Z,87.000000
2023-09-17T10:35:16.585Z,87.000000
2023-09-17T10:40:16.497Z,88.000000
2023-09-17T10:45:16.756Z,88.000000
2023-09-17T10:50:16.369Z,88.000000
2023-09-17T10:55:16.508Z,87.000000
2023-09-17T11:00:16.508Z,87.000000
2023-09-17T11:05:16.238Z,87.000000
2023-09-17T11:10:29.627Z,87.000000
2023-09-17T11:15:16.369Z,87.000000
2023-09-17T11:20:16.469Z,87.000000
2023-09-17T11:25:16.359Z,87.000000
2023-09-17T11:30:16.829Z,87.000000
2023-09-17T11:35:16.713Z,88.000000
2023-09-17T11:40:16.432Z,88.000000
2023-09-17T11:45:16.553Z,88.000000
2023-09-17T11:50:16.492Z,88.000000
2023-09-17T11:55:16.453Z,88.000000
2023-09-17T12:00:17.789Z,88.000000
2023-09-17T12:05:16.550Z,88.000000
2023-09-17T12:10:16.543Z,88.000000
2023-09-17T12:15:16.502Z,88.000000
2023-09-17T12:20:16.640Z,88.000000
2023-09-17T12:25:16.546Z,89.000000
2023-09-17T12:30:16.714Z,89.000000
2023-09-17T12:35:16.723Z,89.000000
2023-09-17T12:40:16.785Z,89.000000
2023-09-17T12:45:16.548Z,89.000000
2023-09-17T12:50:16.612Z,89.000000
2023-09-17T12:55:16.513Z,89.000000
2023-09-17T13:00:16.853Z,89.000000
2023-09-17T13:05:16.642Z,89.000000
2023-09-17T13:10:16.750Z,90.000000
2023-09-17T13:15:16.808Z,90.000000
2023-09-17T13:20:17.046Z,90.000000
2023-09-17T13:25:16.641Z,90.000000
2023-09-17T13:30:16.935Z,90.000000
2023-09-17T13:35:16.881Z,90.000000
2023-09-17T13:40:17.369Z,91.000000
2023-09-17T13:45:16.724Z,91.000000
2023-09-17T13:50:16.989Z,91.000000
2023-09-17T13:55:16.643Z,91.000000
2023-09-17T14:00:17.757Z,91.000000
2023-09-17T14:05:16.952Z,91.000000
2023-09-17T14:10:19.349Z,92.000000
2023-09-17T14:15:16.877Z,91.000000
2023-09-17T14:20:17.262Z,92.000000
2023-09-17T14:25:17.106Z,92.000000
2023-09-17T14:30:17.232Z,90.000000
2023-09-17T14:35:16.835Z,89.000000
2023-09-17T14:40:17.151Z,92.000000
2023-09-17T14:45:17.055Z,92.000000
2023-09-17T14:50:16.882Z,89.000000
2023-09-17T14:55:16.778Z,90.000000
2023-09-17T15:00:17.226Z,92.000000
2023-09-17T15:05:16.900Z,91.000000
2023-09-17T15:10:16.918Z,90.000000
2023-09-17T15:15:16.932Z,91.000000
2023-09-17T15:20:18.476Z,92.000000
2023-09-17T15:25:17.039Z,93.000000
2023-09-17T15:30:17.257Z,92.000000
2023-09-17T15:35:19.753Z,90.000000
2023-09-17T15:40:16.937Z,92.000000
2023-09-17T15:45:17.290Z,90.000000
2023-09-17T15:50:17.082Z,91.000000
2023-09-17T15:55:17.026Z,90.000000
2023-09-17T16:00:17.899Z,91.000000
2023-09-17T16:05:16.985Z,88.000000
2023-09-17T16:10:17.130Z,90.000000
2023-09-17T16:15:16.990Z,89.000000
2023-09-17T16:20:17.382Z,90.000000
2023-09-17T16:25:16.988Z,88.000000
2023-09-17T16:30:17.379Z,88.000000
2023-09-17T16:35:17.326Z,91.000000
2023-09-17T16:40:17.298Z,89.000000
2023-09-17T16:45:17.324Z,86.000000
2023-09-17T16:50:17.103Z,85.000000
2023-09-17T16:55:17.057Z,87.000000
2023-09-17T17:00:17.865Z,91.000000
2023-09-17T17:05:17.071Z,94.000000
2023-09-17T17:10:17.058Z,94.000000
2023-09-17T17:15:17.160Z,96.000000
2023-09-17T17:20:17.659Z,96.000000
2023-09-17T17:25:17.073Z,96.000000
2023-09-17T17:30:17.481Z,97.000000
2023-09-17T17:35:17.411Z,98.000000
2023-09-17T17:40:17.688Z,99.000000
2023-09-17T17:45:17.418Z,99.000000
2023-09-17T17:50:17.270Z,98.000000
2023-09-17T17:55:17.247Z,99.000000
2023-09-17T18:00:18.331Z,99.000000
2023-09-17T18:05:17.265Z,98.000000
2023-09-17T18:10:17.333Z,98.000000
2023-09-17T18:15:17.839Z,98.000000
2023-09-17T18:20:17.264Z,99.000000
2023-09-17T18:25:17.250Z,98.000000
2023-09-17T18:30:17.691Z,98.000000
2023-09-17T18:35:17.330Z,98.000000
2023-09-17T18:40:17.324Z,99.000000
2023-09-17T18:45:17.650Z,98.000000
2023-09-17T18:50:17.606Z,98.000000
2023-09-17T18:55:17.303Z,99.000000
2023-09-17T19:00:17.474Z,99.000000
2023-09-17T19:05:17.442Z,99.000000
2023-09-17T19:10:17.501Z,99.000000
2023-09-17T19:15:17.411Z,100.000000
2023-09-17T19:20:17.671Z,99.000000
2023-09-17T19:25:17.494Z,99.000000
2023-09-17T19:30:18.433Z,99.000000
2023-09-17T19:35:17.606Z,99.000000
2023-09-17T19:40:17.737Z,99.000000
2023-09-17T19:45:17.590Z,98.000000
2023-09-17T19:50:18.063Z,99.000000
2023-09-17T19:55:17.703Z,99.000000
2023-09-17T20:00:18.734Z,100.000000
2023-09-17T20:05:17.583Z,99.000000
2023-09-17T20:10:17.602Z,99.000000
2023-09-17T20:15:17.731Z,99.000000
2023-09-17T20:20:17.734Z,100.000000
2023-09-17T20:25:17.575Z,100.000000
2023-09-17T20:30:17.927Z,99.000000
2023-09-17T20:35:17.702Z,99.000000
2023-09-17T20:40:17.603Z,99.000000
2023-09-17T20:45:18.493Z,99.000000
2023-09-17T20:50:17.939Z,100.000000
2023-09-17T20:55:18.032Z,100.000000
2023-09-17T21:00:18.280Z,99.000000
2023-09-17T21:05:18.123Z,99.000000
2023-09-17T21:10:17.671Z,98.000000
2023-09-17T21:15:17.900Z,98.000000
2023-09-17T21:20:17.733Z,98.000000
2023-09-17T21:25:17.707Z,98.000000
2023-09-17T21:30:18.086Z,98.000000
2023-09-17T21:35:17.828Z,98.000000
2023-09-17T21:40:17.985Z,98.000000
2023-09-17T21:45:17.931Z,97.000000
2023-09-17T21:50:17.777Z,97.000000
2023-09-17T21:55:17.798Z,97.000000
2023-09-17T22:00:19.635Z,97.000000
2023-09-17T22:05:18.328Z,97.000000
2023-09-17T22:10:18.154Z,96.000000
2023-09-17T22:15:18.294Z,95.000000
2023-09-17T22:20:17.900Z,95.000000
2023-09-17T22:25:17.701Z,95.000000
2023-09-17T22:30:17.867Z,95.000000
2023-09-17T22:35:17.840Z,94.000000
2023-09-17T22:40:17.874Z,94.000000
2023-09-17T22:45:18.172Z,93.000000
2023-09-17T22:50:17.985Z,93.000000
2023-09-17T22:55:18.111Z,93.000000
2023-09-17T23:00:17.918Z,93.000000
2023-09-17T23:05:18.367Z,93.000000
2023-09-17T23:10:17.962Z,93.000000
2023-09-17T23:15:18.432Z,94.000000
2023-09-17T23:20:18.118Z,93.000000
2023-09-17T23:25:17.942Z,92.000000
2023-09-17T23:30:17.963Z,92.000000
2023-09-17T23:35:17.983Z,92.000000
2023-09-17T23:40:17.958Z,92.000000
2023-09-17T23:45:18.089Z,92.000000
2023-09-17T23:50:18.065Z,92.000000
2023-09-17T23:55:18.043Z,92.000000
